createdAt,value
2023-04-21T00:00:15.917Z,3.47
2023-04-21T00:02:43.706Z,2.85
2023-04-21T00:05:12.716Z,3.03
2023-04-21T00:07:41.663Z,2.55
2023-04-21T00:10:11.164Z,3.05
2023-04-21T00:12:39.073Z,2.30
2023-04-21T00:15:07.379Z,3.00
2023-04-21T00:17:35.091Z,3.58
2023-04-21T00:20:03.304Z,2.50
2023-04-21T00:22:30.918Z,2.40
2023-04-21T00:24:58.974Z,3.47
2023-04-21T00:27:26.533Z,2.80
2023-04-21T00:29:54.089Z,2.78
2023-04-21T00:32:21.855Z,2.40
2023-04-21T00:34:50.690Z,2.35
2023-04-21T00:37:19.020Z,2.00
2023-04-21T00:39:46.628Z,2.35
2023-04-21T00:42:18.024Z,2.50
2023-04-21T00:44:45.784Z,2.50
2023-04-21T00:47:14.023Z,3.13
2023-04-21T00:49:43.164Z,2.47
2023-04-21T00:52:11.545Z,2.17
2023-04-21T00:54:40.260Z,2.40
2023-04-21T00:57:08.183Z,3.40
2023-04-21T00:59:36.439Z,2.10
2023-04-21T01:02:04.652Z,3.58
2023-04-21T01:04:37.307Z,2.25
2023-04-21T01:09:33.623Z,2.10
2023-04-21T01:12:11.897Z,2.13
2023-04-21T01:14:40.842Z,2.33
2023-04-21T01:17:08.836Z,2.70
2023-04-21T01:19:41.211Z,1.95
2023-04-21T01:22:13.301Z,2.53
2023-04-21T01:24:49.279Z,1.95
2023-04-21T01:27:19.399Z,2.60
2023-04-21T01:29:51.335Z,2.30
2023-04-21T01:32:25.170Z,1.85
2023-04-21T01:34:55.496Z,2.30
2023-04-21T01:37:26.913Z,2.30
2023-04-21T01:39:58.528Z,4.18
2023-04-21T01:42:28.502Z,2.22
2023-04-21T01:44:57.463Z,2.08
2023-04-21T01:47:25.942Z,2.20
2023-04-21T01:49:53.830Z,2.30
2023-04-21T01:52:21.696Z,2.20
2023-04-21T01:54:49.470Z,1.85
2023-04-21T01:57:18.184Z,3.03
2023-04-21T01:59:46.130Z,2.08
2023-04-21T02:02:14.312Z,2.35
2023-04-21T02:04:42.130Z,2.10
2023-04-21T02:07:09.891Z,3.22
2023-04-21T02:09:37.474Z,2.10
2023-04-21T02:12:05.360Z,2.65
2023-04-21T02:14:32.956Z,2.08
2023-04-21T02:17:00.588Z,1.63
2023-04-21T02:19:29.280Z,2.25
2023-04-21T02:21:56.870Z,1.85
2023-04-21T02:24:24.512Z,2.67
2023-04-21T02:26:53.957Z,2.55
2023-04-21T02:29:22.018Z,1.90
2023-04-21T02:32:00.673Z,2.03
2023-04-21T02:34:33.214Z,2.10
2023-04-21T02:37:00.970Z,1.77
2023-04-21T02:39:28.624Z,2.50
2023-04-21T02:41:56.377Z,1.98
2023-04-21T02:44:24.008Z,2.15
2023-04-21T02:46:51.689Z,2.33
2023-04-21T02:49:19.656Z,2.08
2023-04-21T02:51:47.732Z,2.20
2023-04-21T02:54:15.431Z,2.00
2023-04-21T02:56:43.025Z,2.03
2023-04-21T02:59:11.531Z,2.00
2023-04-21T03:01:40.757Z,2.20
2023-04-21T03:04:09.358Z,1.90
2023-04-21T03:06:39.037Z,2.20
2023-04-21T03:09:06.708Z,1.80
2023-04-21T03:11:34.496Z,2.35
2023-04-21T03:14:02.093Z,2.60
2023-04-21T03:16:29.740Z,2.47
2023-04-21T03:18:57.603Z,2.33
2023-04-21T03:21:25.425Z,2.47
2023-04-21T03:23:53.557Z,2.53
2023-04-21T03:26:21.365Z,2.70
2023-04-21T03:28:49.862Z,2.30
2023-04-21T03:31:17.449Z,2.65
2023-04-21T03:33:45.269Z,1.83
2023-04-21T03:36:12.826Z,2.40
2023-04-21T03:38:40.929Z,2.60
2023-04-21T03:41:08.498Z,3.13
2023-04-21T03:43:36.392Z,2.33
2023-04-21T03:46:04.031Z,2.15
2023-04-21T03:48:32.158Z,3.10
2023-04-21T03:50:59.791Z,3.35
2023-04-21T03:53:27.337Z,2.60
2023-04-21T03:55:54.864Z,2.95
2023-04-21T03:58:22.443Z,2.83
2023-04-21T04:00:49.992Z,2.38
2023-04-21T04:03:17.968Z,2.33
2023-04-21T04:05:46.754Z,2.90
2023-04-21T04:08:14.371Z,2.17
2023-04-21T04:10:42.027Z,2.72
2023-04-21T04:13:09.789Z,1.90
2023-04-21T04:15:37.419Z,2.22
2023-04-21T04:18:05.300Z,2.30
2023-04-21T04:20:33.290Z,3.38
2023-04-21T04:23:01.009Z,3.10
2023-04-21T04:25:28.605Z,2.80
2023-04-21T04:27:57.445Z,2.35
2023-04-21T04:30:28.039Z,2.70
2023-04-21T04:32:58.102Z,2.63
2023-04-21T04:35:25.754Z,2.38
2023-04-21T04:37:55.023Z,2.25
2023-04-21T04:40:22.772Z,2.60
2023-04-21T04:42:51.594Z,2.15
2023-04-21T04:45:22.302Z,2.97
2023-04-21T04:47:50.638Z,2.10
2023-04-21T04:50:18.461Z,2.70
2023-04-21T04:52:47.646Z,2.50
2023-04-21T04:55:15.405Z,2.25
2023-04-21T04:57:42.999Z,2.30
2023-04-21T05:00:11.886Z,2.30
2023-04-21T05:02:40.243Z,3.50
2023-04-21T05:05:08.531Z,2.38
2023-04-21T05:07:36.641Z,3.70
2023-04-21T05:10:04.777Z,2.92
2023-04-21T05:12:32.414Z,3.78
2023-04-21T05:14:59.968Z,2.78
2023-04-21T05:17:28.756Z,3.33
2023-04-21T05:19:56.980Z,2.35
2023-04-21T05:22:24.855Z,2.20
2023-04-21T05:24:53.143Z,2.10
2023-04-21T05:27:21.118Z,3.38
2023-04-21T05:29:49.002Z,2.85
2023-04-21T05:32:16.771Z,2.38
2023-04-21T05:34:44.457Z,1.95
2023-04-21T05:37:15.394Z,3.08
2023-04-21T05:39:43.053Z,2.03
2023-04-21T05:42:11.542Z,2.65
2023-04-21T05:44:40.046Z,2.10
2023-04-21T05:47:08.026Z,3.58
2023-04-21T05:49:35.595Z,3.40
2023-04-21T05:52:03.323Z,3.40
2023-04-21T05:54:31.103Z,2.70
2023-04-21T05:56:58.844Z,2.20
2023-04-21T05:59:26.665Z,2.38
2023-04-21T06:01:54.475Z,2.72
2023-04-21T06:04:22.426Z,2.70
2023-04-21T06:06:50.470Z,2.30
2023-04-21T06:09:18.044Z,2.92
2023-04-21T06:11:45.765Z,2.55
2023-04-21T06:14:13.667Z,2.75
2023-04-21T06:16:41.705Z,2.40
2023-04-21T06:19:09.347Z,2.90
2023-04-21T06:21:36.955Z,2.22
2023-04-21T06:24:04.785Z,2.28
2023-04-21T06:26:32.693Z,3.25
2023-04-21T06:29:00.412Z,3.30
2023-04-21T06:31:28.072Z,4.10
2023-04-21T06:33:55.620Z,3.28
2023-04-21T06:36:23.281Z,3.10
2023-04-21T06:38:50.808Z,2.47
2023-04-21T06:41:18.504Z,3.28
2023-04-21T06:43:46.211Z,3.28
2023-04-21T06:46:14.490Z,2.78
2023-04-21T06:48:42.038Z,3.72
2023-04-21T06:51:09.610Z,2.45
2023-04-21T06:53:38.425Z,3.25
2023-04-21T06:56:06.239Z,3.80
2023-04-21T06:58:33.881Z,2.70
2023-04-21T07:01:02.164Z,2.65
2023-04-21T07:03:29.812Z,3.70
2023-04-21T07:05:57.486Z,3.45
2023-04-21T07:08:25.765Z,3.97
2023-04-21T07:10:53.357Z,3.33
2023-04-21T07:13:21.038Z,2.97
2023-04-21T07:15:48.915Z,3.10
2023-04-21T07:18:16.504Z,2.53
2023-04-21T07:20:45.234Z,3.03
2023-04-21T07:23:12.903Z,3.20
2023-04-21T07:25:40.525Z,3.28
2023-04-21T07:28:08.406Z,3.70
2023-04-21T07:30:35.965Z,3.45
2023-04-21T07:33:03.598Z,3.30
2023-04-21T07:35:31.139Z,3.17
2023-04-21T07:37:58.836Z,2.72
2023-04-21T07:40:26.575Z,2.72
2023-04-21T07:42:54.238Z,3.08
2023-04-21T07:45:21.784Z,3.05
2023-04-21T07:47:49.628Z,2.97
2023-04-21T07:50:17.237Z,3.05
2023-04-21T07:52:44.803Z,3.50
2023-04-21T07:55:12.413Z,2.97
2023-04-21T07:57:40.639Z,3.17
2023-04-21T08:00:09.515Z,4.45
2023-04-21T08:02:40.289Z,3.58
2023-04-21T08:05:08.872Z,3.53
2023-04-21T08:07:36.991Z,3.55
2023-04-21T08:10:05.615Z,2.90
2023-04-21T08:12:33.200Z,3.00
2023-04-21T08:15:05.857Z,3.05
2023-04-21T08:17:34.164Z,4.03
2023-04-21T08:20:02.306Z,3.58
2023-04-21T08:22:29.972Z,4.28
2023-04-21T08:24:57.994Z,4.03
2023-04-21T08:27:25.609Z,3.30
2023-04-21T08:29:53.662Z,4.95
2023-04-21T08:32:24.563Z,3.08
2023-04-21T08:34:53.865Z,3.50
2023-04-21T08:37:22.159Z,2.60
2023-04-21T08:39:53.756Z,3.67
2023-04-21T08:42:21.375Z,4.10
2023-04-21T08:44:49.185Z,3.65
2023-04-21T08:47:16.775Z,3.75
2023-04-21T08:49:47.262Z,3.38
2023-04-21T08:52:14.875Z,3.15
2023-04-21T08:54:43.132Z,2.80
2023-04-21T08:57:15.474Z,2.85
2023-04-21T08:59:44.906Z,3.15
2023-04-21T09:02:20.055Z,3.10
2023-04-21T09:04:52.411Z,3.88
2023-04-21T09:07:34.882Z,2.92
2023-04-21T09:10:03.459Z,3.72
2023-04-21T09:12:31.602Z,3.45
2023-04-21T09:15:00.997Z,3.38
2023-04-21T09:17:34.045Z,4.00
2023-04-21T09:20:20.147Z,3.25
2023-04-21T09:22:51.476Z,3.70
2023-04-21T09:25:22.955Z,3.67
2023-04-21T09:27:51.449Z,3.90
2023-04-21T09:30:20.215Z,3.67
2023-04-21T09:32:47.924Z,3.42
2023-04-21T09:35:15.795Z,3.50
2023-04-21T09:37:46.600Z,3.25
2023-04-21T09:40:18.407Z,2.92
2023-04-21T09:42:46.596Z,3.75
2023-04-21T09:47:49.520Z,2.53
2023-04-21T09:50:26.746Z,4.03
2023-04-21T09:53:11.540Z,3.58
2023-04-21T09:55:41.756Z,4.05
2023-04-21T09:58:13.429Z,3.33
2023-04-21T10:00:41.157Z,3.47
2023-04-21T10:03:12.505Z,3.92
2023-04-21T10:05:42.796Z,3.95
2023-04-21T10:08:12.712Z,3.53
2023-04-21T10:10:40.731Z,3.67
2023-04-21T10:13:14.781Z,3.78
2023-04-21T10:15:42.756Z,3.60
2023-04-21T10:18:22.035Z,3.25
2023-04-21T10:21:10.017Z,3.83
2023-04-21T10:23:42.231Z,3.55
2023-04-21T10:26:16.850Z,3.22
2023-04-21T10:28:46.033Z,3.65
2023-04-21T10:31:21.167Z,3.47
2023-04-21T10:34:09.897Z,3.22
2023-04-21T10:36:49.488Z,3.45
2023-04-21T10:39:26.644Z,2.72
2023-04-21T10:41:58.821Z,3.35
2023-04-21T10:46:59.086Z,3.35
2023-04-21T10:49:27.717Z,3.75
2023-04-21T10:52:02.587Z,2.80
2023-04-21T10:54:37.269Z,3.30
2023-04-21T10:57:08.214Z,3.15
2023-04-21T10:59:36.572Z,3.83
2023-04-21T11:02:07.679Z,3.22
2023-04-21T11:04:35.949Z,3.67
2023-04-21T11:07:12.540Z,3.53
2023-04-21T11:09:41.697Z,3.85
2023-04-21T11:12:11.577Z,3.35
2023-04-21T11:14:41.624Z,3.42
2023-04-21T11:17:20.843Z,3.38
2023-04-21T11:19:54.393Z,3.65
2023-04-21T11:22:26.529Z,3.38
2023-04-21T11:24:56.252Z,3.47
2023-04-21T11:27:26.369Z,3.15
2023-04-21T11:29:54.140Z,2.95
2023-04-21T11:32:22.025Z,3.35
2023-04-21T11:34:50.365Z,3.35
2023-04-21T11:37:30.321Z,2.83
2023-04-21T11:39:59.763Z,3.28
2023-04-21T11:42:28.342Z,3.10
2023-04-21T11:44:56.825Z,2.85
2023-04-21T11:47:26.805Z,2.65
2023-04-21T11:50:01.990Z,3.08
2023-04-21T11:52:35.683Z,2.88
2023-04-21T11:55:06.276Z,4.32
2023-04-21T11:57:34.370Z,3.45
2023-04-21T12:00:04.082Z,2.85
2023-04-21T12:02:33.885Z,2.97
2023-04-21T12:05:06.321Z,4.43
2023-04-21T12:07:36.290Z,2.90
2023-04-21T12:10:14.686Z,3.03
2023-04-21T12:12:43.239Z,4.15
2023-04-21T12:15:13.310Z,2.95
2023-04-21T12:17:49.136Z,3.55
2023-04-21T12:20:18.713Z,3.33
2023-04-21T12:22:46.900Z,3.00
2023-04-21T12:25:15.328Z,3.63
2023-04-21T12:27:53.478Z,2.97
2023-04-21T12:30:21.982Z,3.20
2023-04-21T12:32:50.035Z,2.67
2023-04-21T12:35:17.936Z,3.00
2023-04-21T12:37:45.712Z,2.83
2023-04-21T12:40:13.482Z,2.85
2023-04-21T12:42:41.157Z,2.60
2023-04-21T12:45:09.101Z,3.08
2023-04-21T12:47:37.682Z,3.20
2023-04-21T12:50:05.992Z,3.42
2023-04-21T12:52:33.721Z,3.20
2023-04-21T12:55:01.298Z,3.35
2023-04-21T12:57:29.014Z,3.35
2023-04-21T12:59:56.778Z,3.65
2023-04-21T13:02:24.533Z,3.00
2023-04-21T13:04:52.298Z,4.57
2023-04-21T13:07:22.193Z,3.42
2023-04-21T13:09:49.780Z,4.40
2023-04-21T13:12:17.449Z,3.28
2023-04-21T13:14:45.095Z,3.95
2023-04-21T13:17:13.608Z,3.90
2023-04-21T13:19:41.386Z,3.47
2023-04-21T13:22:08.971Z,3.63
2023-04-21T13:24:36.573Z,3.58
2023-04-21T13:27:04.338Z,3.47
2023-04-21T13:29:34.559Z,4.63
2023-04-21T13:32:04.747Z,3.95
2023-04-21T13:34:33.813Z,2.88
2023-04-21T13:37:02.191Z,3.50
2023-04-21T13:39:30.170Z,3.45
2023-04-21T13:41:58.112Z,3.28
2023-04-21T13:44:25.916Z,3.05
2023-04-21T13:46:54.134Z,3.20
2023-04-21T13:49:21.808Z,3.28
2023-04-21T13:51:49.417Z,3.25
2023-04-21T13:54:17.089Z,3.60
2023-04-21T13:56:44.758Z,3.70
2023-04-21T13:59:15.042Z,3.88
2023-04-21T14:01:42.925Z,3.00
2023-04-21T14:04:10.938Z,3.20
2023-04-21T14:06:38.782Z,3.20
2023-04-21T14:09:06.562Z,2.97
2023-04-21T14:11:34.267Z,3.25
2023-04-21T14:14:09.412Z,3.45
2023-04-21T14:16:38.737Z,3.25
2023-04-21T14:19:06.883Z,8.45
2023-04-21T14:21:34.889Z,4.20
2023-04-21T14:24:02.624Z,4.20
2023-04-21T14:26:30.365Z,2.88
2023-04-21T14:28:59.670Z,3.10
2023-04-21T14:31:28.045Z,2.90
2023-04-21T14:33:56.065Z,3.55
2023-04-21T14:36:23.862Z,3.25
2023-04-21T14:38:51.549Z,3.75
2023-04-21T14:41:19.161Z,3.83
2023-04-21T14:43:48.421Z,6.13
2023-04-21T14:46:17.725Z,3.42
2023-04-21T14:48:45.633Z,3.50
2023-04-21T14:51:13.248Z,3.05
2023-04-21T14:53:41.163Z,3.33
2023-04-21T14:56:09.015Z,3.45
2023-04-21T14:58:36.654Z,4.15
2023-04-21T15:01:04.602Z,3.10
2023-04-21T15:03:32.331Z,2.92
2023-04-21T15:06:00.245Z,3.85
2023-04-21T15:08:28.044Z,3.25
2023-04-21T15:10:56.419Z,3.35
2023-04-21T15:13:24.095Z,3.33
2023-04-21T15:15:52.248Z,3.50
2023-04-21T15:18:21.081Z,3.80
2023-04-21T15:20:48.763Z,2.33
2023-04-21T15:23:16.629Z,2.90
2023-04-21T15:25:44.246Z,3.00
2023-04-21T15:28:13.194Z,4.03
2023-04-21T15:30:40.839Z,3.15
2023-04-21T15:33:08.577Z,3.25
2023-04-21T15:35:36.477Z,4.10
2023-04-21T15:38:05.141Z,4.53
2023-04-21T15:40:32.942Z,4.18
2023-04-21T15:43:00.561Z,3.20
2023-04-21T15:45:29.258Z,5.18
2023-04-21T15:47:56.835Z,4.03
2023-04-21T15:50:24.460Z,6.70
2023-04-21T15:52:51.969Z,5.53
2023-04-21T15:55:20.047Z,3.58
2023-04-21T15:57:47.646Z,4.05
2023-04-21T16:00:15.705Z,6.95
2023-04-21T16:02:43.427Z,6.20
2023-04-21T16:05:11.227Z,10.50
2023-04-21T16:07:39.072Z,7.75
2023-04-21T16:10:07.372Z,6.97
2023-04-21T16:12:34.928Z,6.60
2023-04-21T16:15:20.016Z,4.63
2023-04-21T16:17:50.574Z,3.30
2023-04-21T16:20:18.468Z,4.03
2023-04-21T16:22:46.214Z,4.80
2023-04-21T16:25:17.889Z,4.72
2023-04-21T16:27:45.774Z,5.88
2023-04-21T16:30:13.442Z,4.90
2023-04-21T16:32:41.140Z,5.28
2023-04-21T16:35:09.371Z,3.53
2023-04-21T16:37:40.128Z,3.80
2023-04-21T16:40:09.737Z,3.50
2023-04-21T16:42:38.259Z,5.25
2023-04-21T16:45:06.670Z,5.00
2023-04-21T16:47:41.255Z,6.55
2023-04-21T16:50:10.317Z,4.57
2023-04-21T16:52:38.095Z,4.38
2023-04-21T16:55:06.175Z,4.13
2023-04-21T16:57:34.133Z,6.18
2023-04-21T17:00:05.635Z,5.03
2023-04-21T17:02:34.386Z,3.92
2023-04-21T17:05:02.348Z,4.30
2023-04-21T17:07:31.513Z,5.22
2023-04-21T17:09:59.183Z,5.25
2023-04-21T17:12:26.836Z,5.28
2023-04-21T17:14:54.435Z,4.68
2023-04-21T17:17:22.266Z,4.32
2023-04-21T17:19:50.166Z,3.78
2023-04-21T17:22:17.814Z,4.68
2023-04-21T17:24:53.198Z,3.40
2023-04-21T17:27:22.039Z,4.05
2023-04-21T17:29:49.595Z,3.08
2023-04-21T17:32:17.317Z,3.58
2023-04-21T17:34:44.896Z,4.13
2023-04-21T17:37:13.096Z,3.65
2023-04-21T17:39:40.728Z,3.03
2023-04-21T17:42:08.313Z,3.22
2023-04-21T17:44:36.139Z,2.78
2023-04-21T17:47:08.555Z,3.88
2023-04-21T17:49:37.000Z,3.50
2023-04-21T17:52:05.904Z,3.15
2023-04-21T17:54:33.889Z,3.28
2023-04-21T17:57:02.123Z,4.60
2023-04-21T17:59:30.648Z,3.13
2023-04-21T18:01:59.110Z,4.22
2023-04-21T18:04:29.874Z,4.93
2023-04-21T18:06:59.089Z,6.65
2023-04-21T18:09:27.331Z,5.55
2023-04-21T18:11:55.044Z,4.75
2023-04-21T18:14:23.417Z,4.50
2023-04-21T18:16:51.203Z,4.35
2023-04-21T18:19:19.505Z,4.07
2023-04-21T18:21:47.879Z,4.05
2023-04-21T18:24:15.905Z,3.10
2023-04-21T18:26:44.018Z,3.42
2023-04-21T18:29:11.814Z,3.30
2023-04-21T18:31:39.882Z,3.50
2023-04-21T18:34:08.778Z,3.88
2023-04-21T18:36:38.514Z,3.72
2023-04-21T18:39:06.629Z,3.38
2023-04-21T18:41:34.489Z,5.28
2023-04-21T18:44:02.352Z,4.28
2023-04-21T18:46:30.357Z,4.43
2023-04-21T18:49:00.602Z,3.45
2023-04-21T18:51:31.557Z,3.28
2023-04-21T18:53:59.476Z,3.45
2023-04-21T18:56:27.484Z,3.03
2023-04-21T18:58:55.394Z,3.47
2023-04-21T19:01:28.941Z,3.45
2023-04-21T19:03:58.842Z,3.50
2023-04-21T19:06:28.070Z,2.88
2023-04-21T19:08:57.109Z,3.58
2023-04-21T19:11:25.309Z,3.88
2023-04-21T19:13:53.679Z,3.80
2023-04-21T19:16:21.503Z,3.22
2023-04-21T19:18:49.446Z,3.25
2023-04-21T19:21:17.422Z,3.55
2023-04-21T19:23:45.355Z,3.17
2023-04-21T19:26:13.725Z,3.13
2023-04-21T19:28:41.928Z,2.75
2023-04-21T19:31:10.639Z,3.10
2023-04-21T19:33:44.641Z,4.03
2023-04-21T19:36:13.156Z,5.40
2023-04-21T19:38:41.481Z,6.57
2023-04-21T19:41:12.294Z,5.00
2023-04-21T19:43:40.165Z,3.45
2023-04-21T19:46:08.937Z,4.53
2023-04-21T19:48:37.276Z,4.38
2023-04-21T19:51:05.172Z,4.00
2023-04-21T19:53:33.698Z,3.30
2023-04-21T19:56:02.805Z,4.25
2023-04-21T19:58:40.384Z,3.35
2023-04-21T20:01:09.542Z,3.50
2023-04-21T20:03:38.152Z,3.40
2023-04-21T20:06:06.975Z,3.47
2023-04-21T20:08:35.964Z,3.88
2023-04-21T20:11:03.564Z,3.60
2023-04-21T20:13:31.335Z,3.38
2023-04-21T20:15:59.825Z,3.22
2023-04-21T20:18:28.211Z,3.50
2023-04-21T20:20:56.150Z,4.18
2023-04-21T20:23:24.147Z,3.22
2023-04-21T20:25:52.165Z,3.80
2023-04-21T20:28:20.551Z,4.22
2023-04-21T20:30:51.916Z,3.42
2023-04-21T20:33:21.334Z,3.72
2023-04-21T20:35:49.490Z,4.07
2023-04-21T20:38:17.840Z,3.17
2023-04-21T20:40:50.137Z,3.40
2023-04-21T20:45:47.554Z,4.53
2023-04-21T20:48:15.845Z,5.45
2023-04-21T20:50:45.747Z,4.30
2023-04-21T20:53:14.070Z,4.13
2023-04-21T20:55:41.977Z,4.68
2023-04-21T20:58:09.882Z,3.67
2023-04-21T21:00:37.531Z,4.20
2023-04-21T21:03:09.947Z,4.32
2023-04-21T21:05:38.434Z,3.47
2023-04-21T21:08:07.216Z,4.78
2023-04-21T21:10:35.724Z,4.90
2023-04-21T21:13:03.815Z,9.60
2023-04-21T21:15:31.394Z,6.72
2023-04-21T21:17:59.151Z,7.75
2023-04-21T21:20:26.998Z,10.25
2023-04-21T21:22:54.659Z,6.55
2023-04-21T21:25:22.339Z,6.00
2023-04-21T21:27:50.187Z,10.27
2023-04-21T21:30:18.025Z,9.40
2023-04-21T21:32:45.916Z,10.02
2023-04-21T21:35:13.659Z,8.55
2023-04-21T21:37:41.266Z,8.18
2023-04-21T21:40:09.804Z,7.63
2023-04-21T21:42:39.191Z,6.43
2023-04-21T21:45:07.685Z,6.13
2023-04-21T21:47:38.356Z,7.05
2023-04-21T21:50:09.429Z,7.30
2023-04-21T21:52:37.154Z,7.03
2023-04-21T21:55:05.444Z,5.88
2023-04-21T21:57:33.306Z,6.57
2023-04-21T22:00:01.998Z,9.38
2023-04-21T22:02:32.749Z,7.47
2023-04-21T22:05:00.831Z,6.70
2023-04-21T22:07:29.454Z,7.13
2023-04-21T22:09:59.760Z,5.25
2023-04-21T22:12:27.565Z,4.47
2023-04-21T22:14:55.235Z,5.45
2023-04-21T22:17:22.793Z,4.45
2023-04-21T22:19:50.540Z,4.35
2023-04-21T22:22:18.360Z,3.97
2023-04-21T22:24:46.569Z,4.43
2023-04-21T22:27:14.254Z,2.80
2023-04-21T22:29:41.988Z,3.67
2023-04-21T22:32:10.373Z,3.42
2023-04-21T22:34:37.967Z,3.40
2023-04-21T22:37:05.797Z,2.88
2023-04-21T22:39:33.411Z,3.33
2023-04-21T22:42:01.248Z,3.22
2023-04-21T22:44:28.809Z,4.13
2023-04-21T22:49:24.827Z,3.45
2023-04-21T22:51:54.524Z,3.25
2023-04-21T22:54:22.064Z,3.33
2023-04-21T22:56:49.724Z,3.42
2023-04-21T22:59:17.478Z,2.97
2023-04-21T23:01:45.051Z,3.65
2023-04-21T23:04:13.034Z,3.97
2023-04-21T23:06:40.811Z,3.92
2023-04-21T23:09:08.469Z,3.17
2023-04-21T23:11:36.512Z,3.10
2023-04-21T23:14:04.082Z,3.05
2023-04-21T23:16:32.050Z,3.28
2023-04-21T23:18:59.762Z,3.50
2023-04-21T23:21:27.382Z,3.60
2023-04-21T23:23:54.956Z,3.50
2023-04-21T23:26:22.700Z,4.05
2023-04-21T23:28:50.293Z,3.67
2023-04-21T23:31:18.096Z,4.60
2023-04-21T23:33:45.826Z,4.72
2023-04-21T23:36:13.420Z,4.22
2023-04-21T23:38:40.995Z,3.95
2023-04-21T23:41:08.572Z,4.22
2023-04-21T23:43:37.548Z,4.78
2023-04-21T23:46:05.215Z,3.95
2023-04-21T23:48:32.836Z,3.78
2023-04-21T23:51:01.182Z,3.40
2023-04-21T23:53:28.891Z,3.78
2023-04-21T23:55:56.554Z,4.07
2023-04-21T23:58:24.202Z,4.07
